sensor_id;sensor_type;location;lat;lon;timestamp;pressure;altitude;pressure_sealevel;temperature;humidity
79411;BME280;69635;50.964;6.948;2023-09-07T00:00:18;101537.84;;;18.57;100.00
79411;BME280;69635;50.964;6.948;2023-09-07T00:02:44;101538.81;;;18.53;100.00
79411;BME280;69635;50.964;6.948;2023-09-07T00:05:09;101539.75;;;18.52;100.00
79411;BME280;69635;50.964;6.948;2023-09-07T00:07:35;101534.50;;;18.46;100.00
79411;BME280;69635;50.964;6.948;2023-09-07T00:10:02;101540.81;;;18.42;100.00
79411;BME280;69635;50.964;6.948;2023-09-07T00:12:28;101532.66;;;18.48;100.00
79411;BME280;69635;50.964;6.948;2023-09-07T00:14:54;101532.75;;;18.45;100.00
79411;BME280;69635;50.964;6.948;2023-09-07T00:17:20;101531.94;;;18.40;100.00
79411;BME280;69635;50.964;6.948;2023-09-07T00:19:45;101534.63;;;18.38;100.00
79411;BME280;69635;50.964;6.948;2023-09-07T00:22:14;101520.53;;;18.30;100.00
79411;BME280;69635;50.964;6.948;2023-09-07T00:24:39;101526.84;;;18.26;100.00
79411;BME280;69635;50.964;6.948;2023-09-07T00:27:07;101526.84;;;18.26;100.00
79411;BME280;69635;50.964;6.948;2023-09-07T00:29:36;101519.66;;;18.28;100.00
79411;BME280;69635;50.964;6.948;2023-09-07T00:32:01;101527.59;;;18.34;100.00
79411;BME280;69635;50.964;6.948;2023-09-07T00:34:27;101525.75;;;18.36;100.00
79411;BME280;69635;50.964;6.948;2023-09-07T00:36:52;101527.72;;;18.27;100.00
79411;BME280;69635;50.964;6.948;2023-09-07T00:39:18;101524.28;;;18.22;100.00
79411;BME280;69635;50.964;6.948;2023-09-07T00:41:47;101525.09;;;18.25;100.00
79411;BME280;69635;50.964;6.948;2023-09-07T00:44:16;101525.94;;;18.27;100.00
79411;BME280;69635;50.964;6.948;2023-09-07T00:46:42;101520.56;;;18.29;100.00
79411;BME280;69635;50.964;6.948;2023-09-07T00:49:11;101524.91;;;18.34;100.00
79411;BME280;69635;50.964;6.948;2023-09-07T00:51:39;101517.06;;;18.25;100.00
79411;BME280;69635;50.964;6.948;2023-09-07T00:54:05;101520.66;;;18.23;100.00
79411;BME280;69635;50.964;6.948;2023-09-07T00:56:31;101517.09;;;18.22;100.00
79411;BME280;69635;50.964;6.948;2023-09-07T00:58:57;101526.03;;;18.23;100.00
79411;BME280;69635;50.964;6.948;2023-09-07T01:01:25;101531.34;;;18.24;100.00
79411;BME280;69635;50.964;6.948;2023-09-07T01:03:51;101522.53;;;18.19;100.00
79411;BME280;69635;50.964;6.948;2023-09-07T01:06:20;101517.31;;;18.12;100.00
79411;BME280;69635;50.964;6.948;2023-09-07T01:08:51;101511.22;;;18.05;100.00
79411;BME280;69635;50.964;6.948;2023-09-07T01:11:19;101513.94;;;18.03;100.00
79411;BME280;69635;50.964;6.948;2023-09-07T01:13:56;101512.97;;;18.06;100.00
79411;BME280;69635;50.964;6.948;2023-09-07T01:16:24;101511.34;;;17.97;100.00
79411;BME280;69635;50.964;6.948;2023-09-07T01:18:50;101514.00;;;18.00;100.00
79411;BME280;69635;50.964;6.948;2023-09-07T01:21:16;101508.66;;;18.00;100.00
79411;BME280;69635;50.964;6.948;2023-09-07T01:23:43;101510.53;;;17.94;100.00
79411;BME280;69635;50.964;6.948;2023-09-07T01:26:10;101511.41;;;17.96;100.00
79411;BME280;69635;50.964;6.948;2023-09-07T01:28:36;101503.44;;;17.93;100.00
79411;BME280;69635;50.964;6.948;2023-09-07T01:31:05;101508.97;;;17.84;100.00
79411;BME280;69635;50.964;6.948;2023-09-07T01:33:31;101509.03;;;17.79;100.00
79411;BME280;69635;50.964;6.948;2023-09-07T01:35:57;101508.28;;;17.73;100.00
79411;BME280;69635;50.964;6.948;2023-09-07T01:38:22;101506.53;;;17.72;100.00
79411;BME280;69635;50.964;6.948;2023-09-07T01:40:48;101505.69;;;17.67;100.00
79411;BME280;69635;50.964;6.948;2023-09-07T01:43:14;101501.25;;;17.67;100.00
79411;BME280;69635;50.964;6.948;2023-09-07T01:45:39;101504.84;;;17.65;100.00
79411;BME280;69635;50.964;6.948;2023-09-07T01:48:11;101499.50;;;17.65;100.00
79411;BME280;69635;50.964;6.948;2023-09-07T01:50:37;101509.19;;;17.72;100.00
79411;BME280;69635;50.964;6.948;2023-09-07T01:53:03;101503.84;;;17.72;100.00
79411;BME280;69635;50.964;6.948;2023-09-07T01:55:30;101506.63;;;17.66;100.00
79411;BME280;69635;50.964;6.948;2023-09-07T01:57:55;101508.41;;;17.65;100.00
79411;BME280;69635;50.964;6.948;2023-09-07T02:00:21;101506.75;;;17.58;100.00
79411;BME280;69635;50.964;6.948;2023-09-07T02:02:46;101505.84;;;17.61;100.00
79411;BME280;69635;50.964;6.948;2023-09-07T02:05:12;101512.81;;;17.69;100.00
79411;BME280;69635;50.964;6.948;2023-09-07T02:07:37;101502.16;;;17.66;100.00
79411;BME280;69635;50.964;6.948;2023-09-07T02:10:03;101504.88;;;17.63;100.00
79411;BME280;69635;50.964;6.948;2023-09-07T02:12:29;101502.22;;;17.62;100.00
79411;BME280;69635;50.964;6.948;2023-09-07T02:14:55;101499.56;;;17.62;100.00
79411;BME280;69635;50.964;6.948;2023-09-07T02:17:21;101505.72;;;17.65;100.00
79411;BME280;69635;50.964;6.948;2023-09-07T02:19:46;101501.34;;;17.63;100.00
79411;BME280;69635;50.964;6.948;2023-09-07T02:22:14;101503.19;;;17.59;100.00
79411;BME280;69635;50.964;6.948;2023-09-07T02:24:40;101500.53;;;17.59;100.00
79411;BME280;69635;50.964;6.948;2023-09-07T02:27:05;101495.16;;;17.58;100.00
79411;BME280;69635;50.964;6.948;2023-09-07T02:29:31;101497.81;;;17.61;100.00
79411;BME280;69635;50.964;6.948;2023-09-07T02:31:56;101496.00;;;17.61;100.00
79411;BME280;69635;50.964;6.948;2023-09-07T02:34:22;101494.09;;;17.68;100.00
79411;BME280;69635;50.964;6.948;2023-09-07T02:36:48;101494.88;;;17.74;100.00
79411;BME280;69635;50.964;6.948;2023-09-07T02:39:13;101495.75;;;17.75;100.00
79411;BME280;69635;50.964;6.948;2023-09-07T02:41:39;101494.06;;;17.69;100.00
79411;BME280;69635;50.964;6.948;2023-09-07T02:44:05;101490.56;;;17.66;100.00
79411;BME280;69635;50.964;6.948;2023-09-07T02:46:30;101495.09;;;17.62;100.00
79411;BME280;69635;50.964;6.948;2023-09-07T02:48:58;101489.81;;;17.59;100.00
79411;BME280;69635;50.964;6.948;2023-09-07T02:51:24;101492.53;;;17.56;100.00
79411;BME280;69635;50.964;6.948;2023-09-07T02:53:50;101490.84;;;17.52;100.00
79411;BME280;69635;50.964;6.948;2023-09-07T02:56:16;101492.53;;;17.56;100.00
79411;BME280;69635;50.964;6.948;2023-09-07T02:58:41;101487.13;;;17.58;100.00
79411;BME280;69635;50.964;6.948;2023-09-07T03:01:07;101487.13;;;17.58;100.00
79411;BME280;69635;50.964;6.948;2023-09-07T03:03:36;101491.56;;;17.60;100.00
79411;BME280;69635;50.964;6.948;2023-09-07T03:06:12;101486.34;;;17.53;100.00
79411;BME280;69635;50.964;6.948;2023-09-07T03:08:39;101494.44;;;17.50;100.00
79411;BME280;69635;50.964;6.948;2023-09-07T03:11:05;101493.72;;;17.39;100.00
79411;BME280;69635;50.964;6.948;2023-09-07T03:13:31;101496.53;;;17.30;100.00
79411;BME280;69635;50.964;6.948;2023-09-07T03:15:57;101496.66;;;17.24;100.00
79411;BME280;69635;50.964;6.948;2023-09-07T03:18:22;101494.94;;;17.20;100.00
79411;BME280;69635;50.964;6.948;2023-09-07T03:20:50;101497.63;;;17.20;100.00
79411;BME280;69635;50.964;6.948;2023-09-07T03:23:15;101486.09;;;17.16;100.00
79411;BME280;69635;50.964;6.948;2023-09-07T03:25:41;101487.97;;;17.10;100.00
79411;BME280;69635;50.964;6.948;2023-09-07T03:28:06;101496.81;;;17.13;100.00
79411;BME280;69635;50.964;6.948;2023-09-07T03:30:32;101496.88;;;17.10;100.00
79411;BME280;69635;50.964;6.948;2023-09-07T03:32:58;101495.19;;;17.03;100.00
79411;BME280;69635;50.964;6.948;2023-09-07T03:35:23;101492.47;;;17.08;100.00
79411;BME280;69635;50.964;6.948;2023-09-07T03:37:49;101492.53;;;17.03;100.00
79411;BME280;69635;50.964;6.948;2023-09-07T03:40:15;101493.47;;;16.99;100.00
79411;BME280;69635;50.964;6.948;2023-09-07T03:42:40;101495.28;;;16.97;100.00
79411;BME280;69635;50.964;6.948;2023-09-07T03:45:06;101486.50;;;16.90;100.00
79411;BME280;69635;50.964;6.948;2023-09-07T03:47:31;101491.91;;;16.84;100.00
79411;BME280;69635;50.964;6.948;2023-09-07T03:49:57;101487.47;;;16.85;100.00
79411;BME280;69635;50.964;6.948;2023-09-07T03:52:24;101488.41;;;16.82;100.00
79411;BME280;69635;50.964;6.948;2023-09-07T03:54:53;101490.25;;;16.77;100.00
79411;BME280;69635;50.964;6.948;2023-09-07T03:57:19;101487.63;;;16.74;100.00
79411;BME280;69635;50.964;6.948;2023-09-07T03:59:45;101485.81;;;16.78;100.00
79411;BME280;69635;50.964;6.948;2023-09-07T04:02:11;101489.41;;;16.75;100.00
79411;BME280;69635;50.964;6.948;2023-09-07T04:04:37;101491.25;;;16.72;100.00
79411;BME280;69635;50.964;6.948;2023-09-07T04:07:03;101488.56;;;16.70;100.00
79411;BME280;69635;50.964;6.948;2023-09-07T04:09:28;101482.38;;;16.68;100.00
79411;BME280;69635;50.964;6.948;2023-09-07T04:11:54;101492.28;;;16.62;100.00
79411;BME280;69635;50.964;6.948;2023-09-07T04:14:19;101504.75;;;16.61;100.00
79411;BME280;69635;50.964;6.948;2023-09-07T04:16:45;101489.59;;;16.62;100.00
79411;BME280;69635;50.964;6.948;2023-09-07T04:19:10;101494.91;;;16.63;100.00
79411;BME280;69635;50.964;6.948;2023-09-07T04:21:36;101495.72;;;16.68;100.00
79411;BME280;69635;50.964;6.948;2023-09-07T04:24:01;101484.28;;;16.60;100.00
79411;BME280;69635;50.964;6.948;2023-09-07T04:26:27;101480.69;;;16.61;100.00
79411;BME280;69635;50.964;6.948;2023-09-07T04:28:53;101484.28;;;16.60;100.00
79411;BME280;69635;50.964;6.948;2023-09-07T04:31:19;101493.19;;;16.61;100.00
79411;BME280;69635;50.964;6.948;2023-09-07T04:33:44;101492.25;;;16.63;100.00
79411;BME280;69635;50.964;6.948;2023-09-07T04:36:14;101491.44;;;16.58;100.00
79411;BME280;69635;50.964;6.948;2023-09-07T04:38:40;101500.38;;;16.57;100.00
79411;BME280;69635;50.964;6.948;2023-09-07T04:41:12;101501.25;;;16.56;100.00
79411;BME280;69635;50.964;6.948;2023-09-07T04:43:39;101500.38;;;16.57;100.00
79411;BME280;69635;50.964;6.948;2023-09-07T04:46:12;101504.88;;;16.52;100.00
79411;BME280;69635;50.964;6.948;2023-09-07T04:48:38;101499.59;;;16.48;100.00
79411;BME280;69635;50.964;6.948;2023-09-07T04:51:06;101506.72;;;16.46;100.00
79411;BME280;69635;50.964;6.948;2023-09-07T04:53:33;101508.56;;;16.41;100.00
79411;BME280;69635;50.964;6.948;2023-09-07T04:56:03;101515.72;;;16.39;100.00
79411;BME280;69635;50.964;6.948;2023-09-07T04:58:29;101505.06;;;16.37;100.00
79411;BME280;69635;50.964;6.948;2023-09-07T05:01:01;101507.69;;;16.39;100.00
79411;BME280;69635;50.964;6.948;2023-09-07T05:03:27;101512.16;;;16.38;100.00
79411;BME280;69635;50.964;6.948;2023-09-07T05:05:53;101506.88;;;16.34;100.00
79411;BME280;69635;50.964;6.948;2023-09-07T05:08:19;101512.13;;;16.41;100.00
79411;BME280;69635;50.964;6.948;2023-09-07T05:10:45;101515.72;;;16.39;100.00
79411;BME280;69635;50.964;6.948;2023-09-07T05:13:14;101516.56;;;16.41;100.00
79411;BME280;69635;50.964;6.948;2023-09-07T05:15:53;101512.06;;;16.47;100.00
79411;BME280;69635;50.964;6.948;2023-09-07T05:18:20;101513.88;;;16.47;100.00
79411;BME280;69635;50.964;6.948;2023-09-07T05:20:46;101517.19;;;16.64;100.00
79411;BME280;69635;50.964;6.948;2023-09-07T05:23:20;101510.94;;;16.66;100.00
79411;BME280;69635;50.964;6.948;2023-09-07T05:25:48;101520.78;;;16.63;100.00
79411;BME280;69635;50.964;6.948;2023-09-07T05:28:14;101519.94;;;16.58;100.00
79411;BME280;69635;50.964;6.948;2023-09-07T05:30:40;101523.53;;;16.57;100.00
79411;BME280;69635;50.964;6.948;2023-09-07T05:33:06;101528.75;;;16.64;100.00
79411;BME280;69635;50.964;6.948;2023-09-07T05:35:32;101530.50;;;16.67;100.00
79411;BME280;69635;50.964;6.948;2023-09-07T05:37:58;101535.88;;;16.64;100.00
79411;BME280;69635;50.964;6.948;2023-09-07T05:40:24;101535.00;;;16.62;100.00
79411;BME280;69635;50.964;6.948;2023-09-07T05:42:49;101532.22;;;16.71;100.00
79411;BME280;69635;50.964;6.948;2023-09-07T05:45:15;101527.59;;;16.83;100.00
79411;BME280;69635;50.964;6.948;2023-09-07T05:47:40;101534.63;;;16.89;100.00
79411;BME280;69635;50.964;6.948;2023-09-07T05:50:06;101528.38;;;16.91;100.00
79411;BME280;69635;50.964;6.948;2023-09-07T05:52:32;101531.03;;;16.91;100.00
79411;BME280;69635;50.964;6.948;2023-09-07T05:54:57;101532.75;;;16.94;100.00
79411;BME280;69635;50.964;6.948;2023-09-07T05:57:22;101534.41;;;17.04;100.00
79411;BME280;69635;50.964;6.948;2023-09-07T05:59:48;101526.38;;;17.06;100.00
79411;BME280;69635;50.964;6.948;2023-09-07T06:02:13;101522.47;;;17.25;100.00
79411;BME280;69635;50.964;6.948;2023-09-07T06:04:39;101523.13;;;17.39;100.00
79411;BME280;69635;50.964;6.948;2023-09-07T06:07:05;101526.59;;;17.47;100.00
79411;BME280;69635;50.964;6.948;2023-09-07T06:09:30;101528.19;;;17.57;100.00
79411;BME280;69635;50.964;6.948;2023-09-07T06:11:56;101526.31;;;17.62;100.00
79411;BME280;69635;50.964;6.948;2023-09-07T06:14:21;101516.47;;;17.64;100.00
79411;BME280;69635;50.964;6.948;2023-09-07T06:16:47;101522.69;;;17.66;100.00
79411;BME280;69635;50.964;6.948;2023-09-07T06:19:12;101529.59;;;17.77;100.00
79411;BME280;69635;50.964;6.948;2023-09-07T06:21:38;101525.75;;;18.35;100.00
79411;BME280;69635;50.964;6.948;2023-09-07T06:24:04;101517.75;;;19.49;100.00
79411;BME280;69635;50.964;6.948;2023-09-07T06:26:31;101517.56;;;20.52;100.00
79411;BME280;69635;50.964;6.948;2023-09-07T06:28:57;101507.69;;;21.37;100.00
79411;BME280;69635;50.964;6.948;2023-09-07T06:31:22;101521.50;;;22.03;100.00
79411;BME280;69635;50.964;6.948;2023-09-07T06:33:48;101508.91;;;22.51;100.00
79411;BME280;69635;50.964;6.948;2023-09-07T06:36:13;101513.03;;;22.13;100.00
79411;BME280;69635;50.964;6.948;2023-09-07T06:38:39;101519.53;;;21.31;100.00
79411;BME280;69635;50.964;6.948;2023-09-07T06:41:04;101524.84;;;21.06;100.00
79411;BME280;69635;50.964;6.948;2023-09-07T06:43:33;101532.09;;;22.09;100.00
79411;BME280;69635;50.964;6.948;2023-09-07T06:53:52;101515.31;;;24.00;100.00
79411;BME280;69635;50.964;6.948;2023-09-07T06:56:18;101511.56;;;24.61;100.00
79411;BME280;69635;50.964;6.948;2023-09-07T06:58:43;101525.84;;;24.83;100.00
79411;BME280;69635;50.964;6.948;2023-09-07T07:01:09;101519.72;;;24.98;100.00
79411;BME280;69635;50.964;6.948;2023-09-07T07:03:34;101517.63;;;25.22;100.00
79411;BME280;69635;50.964;6.948;2023-09-07T07:06:00;101514.69;;;25.62;100.00
79411;BME280;69635;50.964;6.948;2023-09-07T07:11:03;101524.72;;;25.94;100.00
79411;BME280;69635;50.964;6.948;2023-09-07T07:13:29;101533.53;;;26.16;100.00
79411;BME280;69635;50.964;6.948;2023-09-07T07:18:28;101529.66;;;26.38;92.95
79411;BME280;69635;50.964;6.948;2023-09-07T07:20:54;101529.97;;;25.97;97.88
79411;BME280;69635;50.964;6.948;2023-09-07T07:23:20;101529.91;;;26.16;96.79
79411;BME280;69635;50.964;6.948;2023-09-07T07:25:45;101522.09;;;25.93;98.65
79411;BME280;69635;50.964;6.948;2023-09-07T07:28:16;101527.34;;;25.96;99.53
79411;BME280;69635;50.964;6.948;2023-09-07T07:30:42;101524.91;;;25.91;96.94
79411;BME280;69635;50.964;6.948;2023-09-07T07:33:10;101524.88;;;25.74;98.46
79411;BME280;69635;50.964;6.948;2023-09-07T07:35:39;101526.28;;;24.93;100.00
79411;BME280;69635;50.964;6.948;2023-09-07T07:38:05;101529.16;;;24.33;100.00
79411;BME280;69635;50.964;6.948;2023-09-07T07:40:31;101532.66;;;23.53;100.00
79411;BME280;69635;50.964;6.948;2023-09-07T07:42:57;101527.69;;;22.77;100.00
79411;BME280;69635;50.964;6.948;2023-09-07T07:45:22;101537.66;;;22.28;100.00
79411;BME280;69635;50.964;6.948;2023-09-07T07:47:54;101538.94;;;21.93;100.00
79411;BME280;69635;50.964;6.948;2023-09-07T07:50:20;101530.06;;;21.65;100.00
79411;BME280;69635;50.964;6.948;2023-09-07T07:52:45;101526.16;;;21.47;100.00
79411;BME280;69635;50.964;6.948;2023-09-07T07:55:11;101526.97;;;21.49;100.00
79411;BME280;69635;50.964;6.948;2023-09-07T07:57:40;101528.50;;;21.58;100.00
79411;BME280;69635;50.964;6.948;2023-09-07T08:00:08;101535.94;;;21.50;100.00
79411;BME280;69635;50.964;6.948;2023-09-07T08:02:55;101532.38;;;21.49;100.00
79411;BME280;69635;50.964;6.948;2023-09-07T08:05:27;101528.81;;;21.49;100.00
79411;BME280;69635;50.964;6.948;2023-09-07T08:07:53;101530.38;;;21.56;100.00
79411;BME280;69635;50.964;6.948;2023-09-07T08:10:18;101537.25;;;21.64;100.00
79411;BME280;69635;50.964;6.948;2023-09-07T08:12:44;101531.34;;;21.79;100.00
79411;BME280;69635;50.964;6.948;2023-09-07T08:15:12;101533.84;;;21.85;100.00
79411;BME280;69635;50.964;6.948;2023-09-07T08:17:38;101532.53;;;21.97;100.00
79411;BME280;69635;50.964;6.948;2023-09-07T08:20:03;101528.34;;;22.13;100.00
79411;BME280;69635;50.964;6.948;2023-09-07T08:22:29;101523.72;;;22.17;100.00
79411;BME280;69635;50.964;6.948;2023-09-07T08:25:19;101528.03;;;22.21;100.00
79411;BME280;69635;50.964;6.948;2023-09-07T08:27:51;101522.66;;;22.21;100.00
79411;BME280;69635;50.964;6.948;2023-09-07T08:30:23;101517.69;;;22.33;100.00
79411;BME280;69635;50.964;6.948;2023-09-07T08:32:51;101528.19;;;22.41;100.00
79411;BME280;69635;50.964;6.948;2023-09-07T08:35:17;101525.81;;;22.56;100.00
79411;BME280;69635;50.964;6.948;2023-09-07T08:37:43;101515.63;;;22.64;100.00
79411;BME280;69635;50.964;6.948;2023-09-07T08:40:09;101520.88;;;22.67;100.00
79411;BME280;69635;50.964;6.948;2023-09-07T08:42:36;101522.47;;;22.73;100.00
79411;BME280;69635;50.964;6.948;2023-09-07T08:47:33;101514.59;;;22.90;100.00
79411;BME280;69635;50.964;6.948;2023-09-07T08:49:59;101515.38;;;22.92;100.00
79411;BME280;69635;50.964;6.948;2023-09-07T08:52:29;101510.34;;;23.06;100.00
79411;BME280;69635;50.964;6.948;2023-09-07T08:54:56;101510.88;;;23.14;100.00
79411;BME280;69635;50.964;6.948;2023-09-07T08:57:24;101509.75;;;23.19;100.00
79411;BME280;69635;50.964;6.948;2023-09-07T08:59:50;101499.38;;;23.32;100.00
79411;BME280;69635;50.964;6.948;2023-09-07T09:02:18;101508.97;;;23.39;100.00
79411;BME280;69635;50.964;6.948;2023-09-07T09:04:44;101508.50;;;23.50;100.00
79411;BME280;69635;50.964;6.948;2023-09-07T09:07:10;101511.63;;;23.61;100.00
79411;BME280;69635;50.964;6.948;2023-09-07T09:09:35;101508.78;;;23.64;100.00
79411;BME280;69635;50.964;6.948;2023-09-07T09:12:10;101503.66;;;23.78;100.00
79411;BME280;69635;50.964;6.948;2023-09-07T09:14:36;101500.63;;;23.85;100.00
79411;BME280;69635;50.964;6.948;2023-09-07T09:17:02;101502.84;;;23.96;100.00
79411;BME280;69635;50.964;6.948;2023-09-07T09:19:32;101499.91;;;24.02;100.00
79411;BME280;69635;50.964;6.948;2023-09-07T09:22:01;101503.88;;;24.13;100.00
79411;BME280;69635;50.964;6.948;2023-09-07T09:24:44;101499.47;;;24.31;100.00
79411;BME280;69635;50.964;6.948;2023-09-07T09:27:16;101498.97;;;24.42;100.00
79411;BME280;69635;50.964;6.948;2023-09-07T09:29:42;101496.84;;;24.48;100.00
79411;BME280;69635;50.964;6.948;2023-09-07T09:32:08;101490.63;;;24.46;100.00
79411;BME280;69635;50.964;6.948;2023-09-07T09:34:35;101492.03;;;24.55;100.00
79411;BME280;69635;50.964;6.948;2023-09-07T09:37:01;101491.59;;;24.64;100.00
79411;BME280;69635;50.964;6.948;2023-09-07T09:39:30;101488.91;;;24.82;100.00
79411;BME280;69635;50.964;6.948;2023-09-07T09:41:56;101482.41;;;24.86;100.00
79411;BME280;69635;50.964;6.948;2023-09-07T09:44:22;101482.91;;;24.94;100.00
79411;BME280;69635;50.964;6.948;2023-09-07T09:46:55;101473.44;;;25.03;100.00
79411;BME280;69635;50.964;6.948;2023-09-07T09:49:30;101478.72;;;25.06;100.00
79411;BME280;69635;50.964;6.948;2023-09-07T09:55:42;101474.84;;;25.29;100.00
79411;BME280;69635;50.964;6.948;2023-09-07T09:58:10;101475.06;;;25.43;100.00
79411;BME280;69635;50.964;6.948;2023-09-07T10:00:37;101470.50;;;25.60;100.00
79411;BME280;69635;50.964;6.948;2023-09-07T10:03:09;101472.34;;;25.77;100.00
79411;BME280;69635;50.964;6.948;2023-09-07T10:05:46;101469.06;;;25.87;100.00
79411;BME280;69635;50.964;6.948;2023-09-07T10:08:13;101476.81;;;25.95;100.00
79411;BME280;69635;50.964;6.948;2023-09-07T10:10:41;101469.38;;;25.98;100.00
79411;BME280;69635;50.964;6.948;2023-09-07T10:13:08;101461.94;;;26.02;100.00
79411;BME280;69635;50.964;6.948;2023-09-07T10:15:34;101457.97;;;26.09;100.00
79411;BME280;69635;50.964;6.948;2023-09-07T10:18:17;101447.78;;;26.30;100.00
79411;BME280;69635;50.964;6.948;2023-09-07T10:20:53;101447.22;;;26.40;100.00
79411;BME280;69635;50.964;6.948;2023-09-07T10:23:21;101451.47;;;26.44;100.00
79411;BME280;69635;50.964;6.948;2023-09-07T10:25:50;101450.03;;;26.54;100.00
79411;BME280;69635;50.964;6.948;2023-09-07T10:28:24;101451.50;;;26.60;100.00
79411;BME280;69635;50.964;6.948;2023-09-07T10:31:03;101445.81;;;26.64;100.00
79411;BME280;69635;50.964;6.948;2023-09-07T10:33:39;101436.56;;;26.68;100.00
79411;BME280;69635;50.964;6.948;2023-09-07T10:36:27;101430.44;;;26.80;100.00
79411;BME280;69635;50.964;6.948;2023-09-07T10:38:57;101431.03;;;26.85;100.00
79411;BME280;69635;50.964;6.948;2023-09-07T10:41:44;101426.91;;;26.94;100.00
79411;BME280;69635;50.964;6.948;2023-09-07T10:44:10;101428.91;;;27.06;100.00
79411;BME280;69635;50.964;6.948;2023-09-07T10:46:37;101423.34;;;27.23;100.00
79411;BME280;69635;50.964;6.948;2023-09-07T10:52:22;101417.41;;;27.32;97.15
79411;BME280;69635;50.964;6.948;2023-09-07T10:55:00;101413.25;;;27.41;97.78
79411;BME280;69635;50.964;6.948;2023-09-07T10:57:29;101410.75;;;27.52;96.53
79411;BME280;69635;50.964;6.948;2023-09-07T11:00:21;101410.50;;;27.56;96.23
79411;BME280;69635;50.964;6.948;2023-09-07T11:02:53;101403.88;;;27.60;99.57
79411;BME280;69635;50.964;6.948;2023-09-07T11:05:53;101408.38;;;27.75;97.01
79411;BME280;69635;50.964;6.948;2023-09-07T11:09:05;101406.66;;;27.88;97.49
79411;BME280;69635;50.964;6.948;2023-09-07T11:11:39;101402.41;;;27.98;96.44
79411;BME280;69635;50.964;6.948;2023-09-07T11:14:38;101402.50;;;27.97;93.98
79411;BME280;69635;50.964;6.948;2023-09-07T11:27:32;101399.00;;;28.09;94.53
79411;BME280;69635;50.964;6.948;2023-09-07T11:33:21;101397.34;;;28.20;92.43
79411;BME280;69635;50.964;6.948;2023-09-07T11:35:50;101392.59;;;28.24;92.32
79411;BME280;69635;50.964;6.948;2023-09-07T11:38:28;101392.47;;;28.25;90.32
79411;BME280;69635;50.964;6.948;2023-09-07T11:41:07;101386.38;;;28.22;92.43
79411;BME280;69635;50.964;6.948;2023-09-07T11:43:41;101391.78;;;28.36;91.28
79411;BME280;69635;50.964;6.948;2023-09-07T11:46:07;101381.84;;;28.49;89.39
79411;BME280;69635;50.964;6.948;2023-09-07T11:48:33;101381.06;;;28.47;89.09
79411;BME280;69635;50.964;6.948;2023-09-07T11:51:00;101377.84;;;28.55;88.35
79411;BME280;69635;50.964;6.948;2023-09-07T11:53:37;101381.31;;;28.71;88.34
79411;BME280;69635;50.964;6.948;2023-09-07T11:56:10;101377.31;;;28.76;83.36
79411;BME280;69635;50.964;6.948;2023-09-07T11:58:50;101373.25;;;28.69;85.60
79411;BME280;69635;50.964;6.948;2023-09-07T12:01:15;101368.78;;;28.68;87.57
79411;BME280;69635;50.964;6.948;2023-09-07T12:03:42;101375.00;;;28.70;86.87
79411;BME280;69635;50.964;6.948;2023-09-07T12:06:13;101381.97;;;28.74;88.66
79411;BME280;69635;50.964;6.948;2023-09-07T12:09:04;101380.31;;;28.86;86.70
79411;BME280;69635;50.964;6.948;2023-09-07T12:11:33;101377.63;;;28.98;82.91
79411;BME280;69635;50.964;6.948;2023-09-07T12:14:02;101372.31;;;29.09;83.48
79411;BME280;69635;50.964;6.948;2023-09-07T12:16:29;101378.94;;;29.05;80.85
79411;BME280;69635;50.964;6.948;2023-09-07T12:18:55;101372.72;;;29.03;79.96
79411;BME280;69635;50.964;6.948;2023-09-07T12:21:24;101370.00;;;29.03;81.15
79411;BME280;69635;50.964;6.948;2023-09-07T12:23:49;101362.00;;;29.14;79.11
79411;BME280;69635;50.964;6.948;2023-09-07T12:26:15;101357.66;;;29.24;78.45
79411;BME280;69635;50.964;6.948;2023-09-07T12:28:42;101351.53;;;29.21;77.58
79411;BME280;69635;50.964;6.948;2023-09-07T12:31:08;101350.25;;;29.26;77.42
79411;BME280;69635;50.964;6.948;2023-09-07T12:33:33;101352.84;;;29.28;78.19
79411;BME280;69635;50.964;6.948;2023-09-07T12:35:58;101350.72;;;29.33;76.39
79411;BME280;69635;50.964;6.948;2023-09-07T12:38:26;101357.38;;;29.42;74.73
79411;BME280;69635;50.964;6.948;2023-09-07T12:40:54;101348.19;;;29.30;76.52
79411;BME280;69635;50.964;6.948;2023-09-07T12:43:20;101347.66;;;29.38;75.86
79411;BME280;69635;50.964;6.948;2023-09-07T12:45:46;101348.53;;;29.38;76.65
79411;BME280;69635;50.964;6.948;2023-09-07T12:48:12;101348.31;;;29.41;76.96
79411;BME280;69635;50.964;6.948;2023-09-07T12:50:37;101339.81;;;29.46;77.46
79411;BME280;69635;50.964;6.948;2023-09-07T12:53:04;101340.56;;;29.48;77.30
79411;BME280;69635;50.964;6.948;2023-09-07T12:55:29;101345.81;;;29.51;75.67
79411;BME280;69635;50.964;6.948;2023-09-07T12:57:58;101339.72;;;29.47;76.76
79411;BME280;69635;50.964;6.948;2023-09-07T13:00:25;101337.09;;;29.58;75.27
79411;BME280;69635;50.964;6.948;2023-09-07T13:02:51;101330.56;;;29.73;75.18
79411;BME280;69635;50.964;6.948;2023-09-07T13:05:16;101334.69;;;29.66;75.14
79411;BME280;69635;50.964;6.948;2023-09-07T13:07:42;101330.44;;;29.62;74.98
79411;BME280;69635;50.964;6.948;2023-09-07T13:10:09;101322.13;;;29.64;73.78
79411;BME280;69635;50.964;6.948;2023-09-07T13:12:36;101315.19;;;29.72;73.41
79411;BME280;69635;50.964;6.948;2023-09-07T13:15:01;101317.81;;;29.74;74.16
79411;BME280;69635;50.964;6.948;2023-09-07T13:17:27;101321.97;;;29.79;73.35
79411;BME280;69635;50.964;6.948;2023-09-07T13:51:54;101273.66;;;30.05;69.93
79411;BME280;69635;50.964;6.948;2023-09-07T13:54:43;101269.94;;;30.06;68.25